TimeCDT,TemperatureF,Dew PointF,Humidity,Sea Level PressureIn,VisibilityMPH,Wind Direction,Wind SpeedMPH,Gust SpeedMPH,PrecipitationIn,Events,Conditions,WindDirDegrees,DateUTC
12:53 AM,70.0,66.0,87,30.01,10.0,SSW,11.5,-,N/A,,Clear,200,2013-08-21 05:53:00
1:53 AM,69.1,66.0,90,30.01,9.0,South,10.4,-,N/A,,Partly Cloudy,190,2013-08-21 06:53:00
2:53 AM,69.1,66.0,90,30.01,8.0,SSW,10.4,-,N/A,,Partly Cloudy,210,2013-08-21 07:53:00
3:53 AM,68.0,66.0,93,30.01,7.0,SSW,9.2,-,N/A,,Mostly Cloudy,200,2013-08-21 08:53:00
4:53 AM,66.9,66.0,97,30.02,7.0,SSW,8.1,-,N/A,,Partly Cloudy,200,2013-08-21 09:53:00
5:53 AM,66.9,64.9,93,30.01,6.0,SSW,8.1,-,N/A,,Clear,200,2013-08-21 10:53:00
6:53 AM,66.9,64.9,93,30.03,5.0,SSW,8.1,-,N/A,,Clear,210,2013-08-21 11:53:00
7:53 AM,70.0,66.0,87,30.04,8.0,SSW,10.4,-,N/A,,Clear,200,2013-08-21 12:53:00
8:53 AM,73.9,66.9,79,30.03,9.0,SSW,13.8,-,N/A,,Partly Cloudy,210,2013-08-21 13:53:00
9:53 AM,75.9,68.0,76,30.03,10.0,SSW,12.7,-,N/A,,Overcast,200,2013-08-21 14:53:00
10:53 AM,79.0,69.1,72,30.03,10.0,SSW,16.1,-,N/A,,Mostly Cloudy,210,2013-08-21 15:53:00
11:53 AM,82.9,68.0,60,30.02,10.0,SSW,15.0,-,N/A,,Partly Cloudy,210,2013-08-21 16:53:00
12:53 PM,84.0,69.1,61,30.01,10.0,South,13.8,-,N/A,,Mostly Cloudy,190,2013-08-21 17:53:00
1:53 PM,86.0,68.0,55,30.00,10.0,SSW,19.6,25.3,N/A,,Clear,200,2013-08-21 18:53:00
2:53 PM,86.0,69.1,57,29.99,10.0,SW,18.4,-,N/A,,Clear,220,2013-08-21 19:53:00
3:53 PM,86.0,68.0,55,29.99,10.0,SW,19.6,-,N/A,,Partly Cloudy,230,2013-08-21 20:53:00
4:53 PM,86.0,69.1,57,29.97,10.0,SSW,17.3,20.7,N/A,,Clear,210,2013-08-21 21:53:00
5:53 PM,84.0,69.1,61,29.96,10.0,SSW,16.1,-,N/A,,Clear,210,2013-08-21 22:53:00
6:53 PM,81.0,70.0,69,29.96,10.0,SSW,6.9,-,N/A,,Clear,210,2013-08-21 23:53:00
7:29 PM,78.8,69.8,74,30.00,10.0,SW,4.6,-,N/A,,Clear,230,2013-08-22 00:29:00
7:53 PM,78.1,70.0,76,29.98,10.0,SSW,6.9,-,N/A,,Clear,210,2013-08-22 00:53:00
8:53 PM,77.0,69.1,76,29.99,10.0,SSW,5.8,-,N/A,,Mostly Cloudy,210,2013-08-22 01:53:00
9:53 PM,75.0,70.0,84,30.01,10.0,SSW,4.6,-,N/A,,Clear,200,2013-08-22 02:53:00
10:53 PM,75.0,71.1,87,30.02,10.0,SSW,5.8,-,N/A,,Overcast,200,2013-08-22 03:53:00
11:01 PM,75.2,69.8,83,30.04,10.0,South,4.6,-,N/A,Thunderstorm,Overcast,190,2013-08-22 04:01:00
11:36 PM,75.2,69.8,83,30.04,10.0,Calm,Calm,-,N/A,,Mostly Cloudy,0,2013-08-22 04:36:00
11:53 PM,75.9,69.1,79,30.01,10.0,ESE,4.6,-,N/A,,Mostly Cloudy,110,2013-08-22 04:53:00